Time;durP1;ratioP1;P1;durP2;ratioP2;P2;SDS_P1;SDS_P2;PMS_P1;PMS_P2;Temp;Humidity;BMP_temperature;BMP_pressure;BME280_temperature;BME280_humidity;BME280_pressure;Samples;Min_cycle;Max_cycle;Signal;HPM_P1;HPM_P2
2024/04/21 00:01:08;;;;;;;1.85;1.48;;;8.60;91.80;;;;;;4195602;28;20049;-63
2024/04/21 00:03:09;;;;;;;1.98;0.90;;;8.50;91.80;;;;;;4207022;28;20097;-62
2024/04/21 00:05:10;;;;;;;1.77;0.77;;;8.50;92.00;;;;;;4206182;28;20485;-62
2024/04/21 00:07:12;;;;;;;0.85;0.80;;;8.50;92.00;;;;;;4212862;28;20051;-63
2024/04/21 00:09:13;;;;;;;2.65;0.85;;;8.60;92.10;;;;;;4200065;28;20056;-65
2024/04/21 00:11:14;;;;;;;2.05;0.50;;;8.40;91.90;;;;;;4196327;28;20056;-62
2024/04/21 00:13:19;;;;;;;0.80;0.52;;;8.50;92.20;;;;;;4200046;28;20049;-63
2024/04/21 00:15:22;;;;;;;0.80;0.50;;;8.50;91.90;;;;;;4205165;28;20084;-64
2024/04/21 00:17:23;;;;;;;0.90;0.47;;;8.40;91.90;;;;;;4196155;28;20044;-62
2024/04/21 00:19:25;;;;;;;3.35;0.85;;;8.40;91.90;;;;;;4191239;28;20524;-62
2024/04/21 00:21:28;;;;;;;1.25;0.70;;;8.40;92.00;;;;;;4197132;28;20496;-64
2024/04/21 00:23:31;;;;;;;0.63;0.40;;;8.40;92.30;;;;;;4200373;28;20601;-62
2024/04/21 00:25:32;;;;;;;1.02;0.77;;;8.40;92.40;;;;;;4203041;28;20048;-63
2024/04/21 00:27:34;;;;;;;4.10;1.02;;;8.40;92.50;;;;;;4213064;28;20047;-62
2024/04/21 00:29:35;;;;;;;1.90;1.05;;;8.50;92.30;;;;;;4202608;28;20052;-63
2024/04/21 00:31:37;;;;;;;2.05;0.82;;;8.50;92.60;;;;;;4209997;28;20048;-63
2024/04/21 00:33:38;;;;;;;0.85;0.60;;;8.60;92.40;;;;;;4211076;28;20048;-63
2024/04/21 00:35:43;;;;;;;1.58;0.40;;;8.60;92.40;;;;;;4201047;28;20476;-63
2024/04/21 00:37:45;;;;;;;0.65;0.60;;;8.60;92.40;;;;;;4212661;28;20159;-63
2024/04/21 00:39:46;;;;;;;9.30;2.47;;;8.50;91.90;;;;;;4203777;28;20036;-63
2024/04/21 00:41:47;;;;;;;1.45;1.02;;;8.50;92.50;;;;;;4208809;28;20390;-62
2024/04/21 00:43:48;;;;;;;0.40;0.30;;;8.60;92.30;;;;;;4211065;28;20057;-62
2024/04/21 00:45:53;;;;;;;0.70;0.40;;;8.50;92.50;;;;;;4201533;28;20460;-62
2024/04/21 00:47:56;;;;;;;1.58;1.13;;;8.50;92.90;;;;;;4212202;28;20062;-63
2024/04/21 00:49:57;;;;;;;2.35;0.45;;;8.60;92.70;;;;;;4204852;28;20502;-62
2024/04/21 00:51:59;;;;;;;0.75;0.30;;;8.50;92.70;;;;;;4207662;28;20486;-62
2024/04/21 00:54:01;;;;;;;0.28;0.28;;;8.50;92.80;;;;;;4210929;28;20112;-62
2024/04/21 00:56:04;;;;;;;16.92;2.20;;;8.50;92.50;;;;;;4201101;28;20437;-62
2024/04/21 00:58:06;;;;;;;1.20;0.95;;;8.50;92.40;;;;;;4196026;28;20129;-66
2024/04/21 01:00:10;;;;;;;0.95;0.50;;;8.60;92.70;;;;;;4207221;28;20059;-63
2024/04/21 01:02:11;;;;;;;2.13;0.60;;;8.50;92.60;;;;;;4206385;28;20454;-63
2024/04/21 01:04:13;;;;;;;2.00;0.80;;;8.60;92.30;;;;;;4211913;28;20123;-63
2024/04/21 01:06:15;;;;;;;5.93;2.40;;;8.50;92.50;;;;;;4200506;28;20109;-64
2024/04/21 01:08:16;;;;;;;0.60;0.30;;;8.40;92.20;;;;;;4212325;28;20116;-62
2024/04/21 01:10:17;;;;;;;0.57;0.40;;;8.40;92.70;;;;;;4207704;28;20044;-63
2024/04/21 01:12:19;;;;;;;1.15;0.50;;;8.40;92.90;;;;;;4204450;28;20048;-63
2024/04/21 01:14:20;;;;;;;0.95;0.60;;;8.40;92.90;;;;;;4212461;28;20089;-62
2024/04/21 01:16:21;;;;;;;0.98;0.40;;;8.40;92.80;;;;;;4200437;28;20048;-63
2024/04/21 01:18:22;;;;;;;1.48;1.05;;;8.40;92.80;;;;;;4211940;28;20048;-62
2024/04/21 01:20:25;;;;;;;1.60;0.93;;;8.40;92.60;;;;;;4209899;28;20040;-64
2024/04/21 01:22:27;;;;;;;0.75;0.50;;;8.40;92.80;;;;;;4202169;28;20044;-63
2024/04/21 01:24:30;;;;;;;3.17;1.10;;;8.40;92.80;;;;;;4212179;28;20050;-62
2024/04/21 01:26:31;;;;;;;1.10;0.60;;;8.50;92.80;;;;;;4208139;28;20677;-62
2024/04/21 01:28:32;;;;;;;2.40;0.70;;;8.40;92.90;;;;;;4197855;28;20494;-63
2024/04/21 01:30:34;;;;;;;1.30;0.50;;;8.30;92.60;;;;;;4196457;28;20045;-64
2024/04/21 01:32:35;;;;;;;0.30;0.30;;;8.30;92.70;;;;;;4206798;28;20052;-63
2024/04/21 01:34:36;;;;;;;2.78;0.60;;;8.20;92.90;;;;;;4178832;28;20446;-63
2024/04/21 01:36:37;;;;;;;1.35;0.82;;;8.10;93.40;;;;;;4203493;28;20428;-63
2024/04/21 01:38:39;;;;;;;0.30;0.30;;;8.20;93.60;;;;;;4199937;28;20392;-63
2024/04/21 01:40:42;;;;;;;1.77;1.10;;;8.20;93.20;;;;;;4196704;28;20049;-63
2024/04/21 01:42:43;;;;;;;0.77;0.47;;;8.20;93.30;;;;;;4206701;28;20048;-63
2024/04/21 01:44:44;;;;;;;0.68;0.60;;;8.20;93.00;;;;;;4195072;28;20105;-64
2024/04/21 01:46:45;;;;;;;1.63;1.27;;;8.30;93.20;;;;;;4201813;28;20104;-63
2024/04/21 01:48:48;;;;;;;1.58;0.77;;;8.30;93.20;;;;;;4204691;28;20542;-62
2024/04/21 01:50:49;;;;;;;1.63;0.68;;;8.30;93.30;;;;;;4183023;28;20056;-62
2024/04/21 01:52:50;;;;;;;0.52;0.32;;;8.30;93.00;;;;;;4210191;28;20048;-63
2024/04/21 01:54:52;;;;;;;2.22;1.40;;;8.30;93.20;;;;;;4203494;28;20055;-62
2024/04/21 01:56:54;;;;;;;1.15;0.68;;;8.20;93.20;;;;;;4203125;28;20047;-63
2024/04/21 01:58:55;;;;;;;3.97;1.65;;;8.20;93.10;;;;;;4205998;28;20053;-62
2024/04/21 02:00:57;;;;;;;2.72;0.50;;;8.20;93.00;;;;;;4198513;28;20063;-62
2024/04/21 02:02:58;;;;;;;3.40;1.15;;;8.30;93.10;;;;;;4210874;28;20048;-63
2024/04/21 02:04:59;;;;;;;0.60;0.60;;;8.20;93.00;;;;;;4198533;28;20049;-62
2024/04/21 02:07:00;;;;;;;2.17;0.40;;;8.20;92.90;;;;;;4184624;28;20052;-65
2024/04/21 02:09:02;;;;;;;3.30;0.70;;;8.20;93.10;;;;;;4207948;28;20052;-62
2024/04/21 02:11:03;;;;;;;1.45;0.88;;;8.20;92.80;;;;;;4198892;28;20044;-62
2024/04/21 02:13:06;;;;;;;1.20;0.75;;;8.20;93.50;;;;;;4208741;28;20097;-66
2024/04/21 02:15:07;;;;;;;9.05;1.58;;;8.20;92.90;;;;;;4183942;28;20142;-62
2024/04/21 02:17:08;;;;;;;1.92;0.75;;;8.20;92.90;;;;;;4199630;28;20514;-62
2024/04/21 02:19:10;;;;;;;18.33;2.45;;;8.20;92.30;;;;;;4209789;28;20059;-61
2024/04/21 02:21:11;;;;;;;0.88;0.47;;;8.20;92.50;;;;;;4198302;28;20045;-66
2024/04/21 02:23:12;;;;;;;2.55;0.90;;;8.20;92.80;;;;;;4206716;28;20070;-62
2024/04/21 02:25:16;;;;;;;1.65;0.88;;;8.20;93.10;;;;;;4215024;28;20493;-62
2024/04/21 02:27:18;;;;;;;1.70;0.50;;;8.30;93.10;;;;;;4196595;28;20499;-64
2024/04/21 02:29:20;;;;;;;1.05;0.40;;;8.40;92.50;;;;;;4203032;28;20048;-62
2024/04/21 02:31:22;;;;;;;0.80;0.52;;;8.40;92.30;;;;;;4214787;28;20048;-62
2024/04/21 02:33:24;;;;;;;0.55;0.55;;;8.30;92.20;;;;;;4207414;28;20044;-61
2024/04/21 02:35:26;;;;;;;6.05;0.77;;;8.30;92.30;;;;;;4209549;28;20044;-61
2024/04/21 02:37:27;;;;;;;0.82;0.40;;;8.20;92.10;;;;;;4213008;28;20101;-63
2024/04/21 02:39:28;;;;;;;0.82;0.82;;;8.20;92.10;;;;;;4203288;28;20081;-63
2024/04/21 02:41:30;;;;;;;7.72;1.33;;;8.10;92.10;;;;;;4214654;28;20044;-63
2024/04/21 02:43:31;;;;;;;0.70;0.50;;;8.10;92.30;;;;;;4208308;28;20040;-63
2024/04/21 02:45:34;;;;;;;2.08;1.02;;;8.00;92.10;;;;;;4207567;28;20531;-62
2024/04/21 02:47:35;;;;;;;1.48;0.70;;;7.90;92.50;;;;;;4214121;28;20521;-67
2024/04/21 02:49:36;;;;;;;1.92;1.10;;;7.90;92.30;;;;;;4201980;28;20059;-63
2024/04/21 02:51:37;;;;;;;1.10;0.25;;;8.00;92.30;;;;;;4214370;28;20108;-64
2024/04/21 02:53:39;;;;;;;1.92;0.50;;;8.00;92.20;;;;;;4210557;28;20474;-63
2024/04/21 02:55:42;;;;;;;0.90;0.38;;;7.90;92.00;;;;;;4205624;28;20086;-63
2024/04/21 02:57:43;;;;;;;0.60;0.43;;;7.80;92.50;;;;;;4214136;28;20066;-63
2024/04/21 02:59:45;;;;;;;0.70;0.70;;;7.90;92.40;;;;;;4202165;28;20052;-63
2024/04/21 03:01:47;;;;;;;0.85;0.40;;;7.80;92.50;;;;;;4197605;28;20051;-63
2024/04/21 03:03:48;;;;;;;0.85;0.82;;;7.80;92.50;;;;;;4199635;28;20456;-62
2024/04/21 03:05:54;;;;;;;1.00;0.30;;;7.70;92.50;;;;;;4208120;28;20048;-63
2024/04/21 03:07:56;;;;;;;1.17;0.57;;;7.70;92.30;;;;;;4197700;28;20052;-62
2024/04/21 03:09:57;;;;;;;1.38;0.50;;;7.60;92.40;;;;;;4181941;28;20094;-63
2024/04/21 03:11:58;;;;;;;3.28;0.50;;;7.60;92.40;;;;;;4211620;28;20104;-63
2024/04/21 03:14:00;;;;;;;1.08;0.65;;;7.60;92.70;;;;;;4212441;28;20093;-63
2024/04/21 03:16:02;;;;;;;0.50;0.30;;;7.70;92.70;;;;;;4203023;28;20067;-63
2024/04/21 03:18:05;;;;;;;1.73;0.75;;;7.70;92.50;;;;;;4213947;28;20054;-62
2024/04/21 03:20:07;;;;;;;1.65;0.38;;;7.70;92.50;;;;;;4205117;28;20052;-63
2024/04/21 03:22:08;;;;;;;0.73;0.50;;;7.70;92.40;;;;;;4210127;28;20048;-63
2024/04/21 03:24:10;;;;;;;1.50;0.85;;;7.80;92.60;;;;;;4213709;28;20040;-63
2024/04/21 03:26:11;;;;;;;6.05;2.00;;;7.80;92.30;;;;;;4210166;28;20051;-62
2024/04/21 03:28:12;;;;;;;1.77;1.20;;;7.80;92.70;;;;;;4197044;28;20052;-63
2024/04/21 03:30:13;;;;;;;0.75;0.55;;;7.80;92.40;;;;;;4187171;28;20053;-63
2024/04/21 03:32:16;;;;;;;6.25;1.92;;;7.80;92.50;;;;;;4202702;28;20052;-63
2024/04/21 03:34:18;;;;;;;2.40;1.10;;;7.80;92.40;;;;;;4198837;28;20047;-63
2024/04/21 03:36:19;;;;;;;2.17;0.40;;;7.90;92.30;;;;;;4208442;28;20044;-63
2024/04/21 03:38:20;;;;;;;0.55;0.28;;;7.90;92.60;;;;;;4197539;28;20049;-64
2024/04/21 03:40:22;;;;;;;0.88;0.30;;;8.00;92.40;;;;;;4200878;28;20429;-63
2024/04/21 03:42:23;;;;;;;1.52;0.80;;;8.00;92.50;;;;;;4206245;28;20052;-63
2024/04/21 03:44:24;;;;;;;1.25;1.15;;;8.10;92.60;;;;;;4213534;28;20056;-63
2024/04/21 03:46:25;;;;;;;1.27;0.40;;;8.10;92.50;;;;;;4201091;28;20064;-63
2024/04/21 03:48:26;;;;;;;0.93;0.40;;;8.10;92.40;;;;;;4213725;28;20473;-62
2024/04/21 03:50:29;;;;;;;0.30;0.13;;;8.10;92.50;;;;;;4210493;28;20470;-63
2024/04/21 03:52:30;;;;;;;0.50;0.35;;;8.10;92.20;;;;;;4204322;28;20044;-63
2024/04/21 03:54:31;;;;;;;1.15;0.50;;;8.10;92.20;;;;;;4213382;28;20048;-63
2024/04/21 03:56:33;;;;;;;1.10;0.75;;;8.00;92.10;;;;;;4202081;28;20052;-63
2024/04/21 03:58:34;;;;;;;0.70;0.40;;;8.00;92.60;;;;;;4211403;28;20113;-63
2024/04/21 04:00:36;;;;;;;1.83;0.55;;;8.00;92.30;;;;;;4212052;28;20039;-64
2024/04/21 04:02:37;;;;;;;1.55;0.68;;;8.00;92.40;;;;;;4202272;28;20501;-63
2024/04/21 04:04:38;;;;;;;3.47;0.45;;;8.00;92.90;;;;;;4213065;28;20489;-63
2024/04/21 04:06:41;;;;;;;0.65;0.50;;;8.10;92.90;;;;;;4204298;28;20103;-62
2024/04/21 04:08:42;;;;;;;2.08;0.47;;;8.20;92.50;;;;;;4209711;28;20452;-63
2024/04/21 04:10:44;;;;;;;0.93;0.40;;;8.10;92.20;;;;;;4209315;28;20052;-62
2024/04/21 04:12:48;;;;;;;1.20;0.40;;;8.10;92.20;;;;;;4207657;28;20044;-63
2024/04/21 04:14:49;;;;;;;2.15;0.45;;;8.10;92.50;;;;;;4196532;28;20407;-62
2024/04/21 04:16:51;;;;;;;4.88;1.05;;;8.10;92.10;;;;;;4203411;28;20044;-63
2024/04/21 04:18:52;;;;;;;1.73;0.80;;;8.00;92.30;;;;;;4201358;28;20193;-63
2024/04/21 04:20:53;;;;;;;1.95;0.40;;;7.90;91.90;;;;;;4180914;28;20045;-63
2024/04/21 04:22:56;;;;;;;0.95;0.55;;;7.80;92.20;;;;;;4209912;28;20070;-62
2024/04/21 04:24:57;;;;;;;2.65;0.60;;;7.80;92.10;;;;;;4212442;28;20056;-63
2024/04/21 04:26:58;;;;;;;0.65;0.38;;;7.70;92.20;;;;;;4206871;28;20055;-63
2024/04/21 04:28:59;;;;;;;0.30;0.20;;;7.80;92.60;;;;;;4205900;28;20498;-63
2024/04/21 04:31:00;;;;;;;2.35;1.00;;;7.80;92.50;;;;;;4211869;28;20047;-63
2024/04/21 04:33:02;;;;;;;1.05;0.28;;;7.80;92.30;;;;;;4208644;28;20470;-62
2024/04/21 04:35:06;;;;;;;0.98;0.45;;;7.70;92.30;;;;;;4196026;28;20070;-62
2024/04/21 04:37:08;;;;;;;0.55;0.47;;;7.70;92.60;;;;;;4199948;28;20527;-63
2024/04/21 04:39:10;;;;;;;6.72;0.73;;;7.70;92.40;;;;;;4204257;28;20476;-62
2024/04/21 04:41:11;;;;;;;2.63;0.40;;;7.70;92.40;;;;;;4196531;28;20049;-63
2024/04/21 04:43:12;;;;;;;1.88;0.43;;;7.70;92.40;;;;;;4207912;28;20059;-66
2024/04/21 04:45:15;;;;;;;0.50;0.38;;;7.70;92.50;;;;;;4196996;28;20041;-64
2024/04/21 04:47:16;;;;;;;1.85;0.50;;;7.60;92.50;;;;;;4198170;28;20052;-64
2024/04/21 04:49:17;;;;;;;3.13;0.40;;;7.70;92.50;;;;;;4206111;28;20053;-66
2024/04/21 04:51:18;;;;;;;0.20;0.20;;;7.70;92.80;;;;;;4196302;28;20049;-63
2024/04/21 04:53:20;;;;;;;1.55;0.45;;;7.70;92.70;;;;;;4188552;28;20049;-63
2024/04/21 04:55:23;;;;;;;1.05;0.22;;;7.70;92.10;;;;;;4198690;28;20052;-63
2024/04/21 04:57:24;;;;;;;1.25;1.05;;;7.60;92.40;;;;;;4197092;28;20074;-63
2024/04/21 04:59:25;;;;;;;1.48;1.00;;;7.60;92.60;;;;;;4207074;28;20040;-63
2024/04/21 05:01:26;;;;;;;0.98;0.57;;;7.60;92.80;;;;;;4196119;28;20109;-63
2024/04/21 05:03:27;;;;;;;2.40;0.40;;;7.70;92.40;;;;;;4186795;28;20064;-65
2024/04/21 05:05:29;;;;;;;1.48;0.20;;;7.80;92.40;;;;;;4200140;28;20044;-63
2024/04/21 05:07:30;;;;;;;2.00;0.55;;;7.70;92.30;;;;;;4196435;28;20063;-63
2024/04/21 05:09:31;;;;;;;1.77;1.58;;;7.70;92.50;;;;;;4206702;28;20047;-63
2024/04/21 05:11:34;;;;;;;1.10;0.30;;;7.70;92.30;;;;;;4197518;28;20047;-63
2024/04/21 05:13:35;;;;;;;0.80;0.30;;;7.70;92.60;;;;;;4201696;28;20537;-62
2024/04/21 05:15:36;;;;;;;3.00;0.50;;;7.80;92.50;;;;;;4201990;28;20464;-63
2024/04/21 05:17:38;;;;;;;12.38;1.92;;;7.80;92.30;;;;;;4195838;28;20048;-62
2024/04/21 05:19:39;;;;;;;2.00;1.25;;;7.70;92.60;;;;;;4207637;28;20114;-63
2024/04/21 05:21:40;;;;;;;1.17;0.30;;;7.70;92.50;;;;;;4195087;28;20048;-63
2024/04/21 05:23:42;;;;;;;1.08;0.82;;;7.80;92.70;;;;;;4199394;28;20057;-63
2024/04/21 05:25:43;;;;;;;0.68;0.35;;;7.80;92.70;;;;;;4203738;28;20056;-63
2024/04/21 05:27:46;;;;;;;1.13;0.43;;;7.80;92.60;;;;;;4212172;28;20485;-63
2024/04/21 05:29:47;;;;;;;0.15;0.15;;;7.90;92.50;;;;;;4200195;28;20044;-63
2024/04/21 05:31:49;;;;;;;2.15;1.30;;;7.90;92.70;;;;;;4211634;28;20074;-63
2024/04/21 05:33:50;;;;;;;1.27;0.85;;;7.90;92.30;;;;;;4209519;28;20523;-63
2024/04/21 05:35:51;;;;;;;0.85;0.30;;;7.90;92.70;;;;;;4202221;28;20043;-63
2024/04/21 05:37:52;;;;;;;0.75;0.25;;;7.90;92.90;;;;;;4211722;28;20052;-63
2024/04/21 05:39:54;;;;;;;1.05;0.20;;;7.90;92.50;;;;;;4202072;28;20053;-68
2024/04/21 05:41:55;;;;;;;0.93;0.63;;;7.90;92.50;;;;;;4209553;28;20055;-63
2024/04/21 05:43:58;;;;;;;2.00;0.32;;;7.90;92.30;;;;;;4194079;28;20044;-66
2024/04/21 05:46:00;;;;;;;2.40;0.40;;;7.90;92.60;;;;;;4200660;28;20486;-63
2024/04/21 05:48:01;;;;;;;0.43;0.20;;;8.00;92.70;;;;;;4212323;28;20084;-63
2024/04/21 05:50:03;;;;;;;0.52;0.20;;;8.10;92.70;;;;;;4203832;28;20070;-63
2024/04/21 05:52:04;;;;;;;1.52;0.50;;;8.00;92.50;;;;;;4207406;28;20094;-66
2024/04/21 05:54:08;;;;;;;4.38;1.20;;;8.10;92.40;;;;;;4210515;28;20115;-63
2024/04/21 05:56:09;;;;;;;0.30;0.20;;;8.10;92.40;;;;;;4184042;28;20055;-67
2024/04/21 05:58:11;;;;;;;1.45;1.02;;;8.00;92.10;;;;;;4212279;28;20051;-66
2024/04/21 06:00:15;;;;;;;0.80;0.30;;;8.00;92.10;;;;;;4205348;28;20052;-62
2024/04/21 06:02:16;;;;;;;1.38;0.30;;;7.90;92.20;;;;;;4206421;28;20115;-63
2024/04/21 06:04:17;;;;;;;1.40;0.93;;;7.90;92.40;;;;;;4210512;28;20044;-62
2024/04/21 06:06:21;;;;;;;8.43;1.17;;;8.10;92.30;;;;;;4206099;28;20050;-63
2024/04/21 06:08:22;;;;;;;1.02;0.85;;;8.10;92.00;;;;;;4195440;28;20045;-63
2024/04/21 06:10:23;;;;;;;0.38;0.38;;;8.20;91.90;;;;;;4200440;28;20594;-63
2024/04/21 06:12:25;;;;;;;1.55;0.70;;;8.40;92.10;;;;;;4202875;28;20045;-65
2024/04/21 06:14:26;;;;;;;0.47;0.32;;;8.40;91.60;;;;;;4195769;28;20045;-64
2024/04/21 06:16:29;;;;;;;2.08;1.27;;;8.40;91.70;;;;;;4207526;28;20276;-63
2024/04/21 06:18:31;;;;;;;0.80;0.40;;;8.50;91.50;;;;;;4195264;28;20090;-64
2024/04/21 06:20:33;;;;;;;0.30;0.17;;;8.50;91.60;;;;;;4198356;28;20044;-62
2024/04/21 06:22:34;;;;;;;0.85;0.40;;;8.40;91.50;;;;;;4203737;28;20379;-63
2024/04/21 06:24:36;;;;;;;0.90;0.40;;;8.40;91.50;;;;;;4194864;28;20103;-63
2024/04/21 06:26:37;;;;;;;2.28;0.30;;;8.40;91.40;;;;;;4199299;28;20063;-63
2024/04/21 06:28:38;;;;;;;1.52;0.57;;;8.50;91.50;;;;;;4193795;28;20040;-63
2024/04/21 06:30:40;;;;;;;3.92;1.20;;;8.60;91.50;;;;;;4209565;28;20036;-63
2024/04/21 06:32:43;;;;;;;0.98;0.28;;;8.60;91.50;;;;;;4201410;28;20044;-62
2024/04/21 06:34:44;;;;;;;1.38;0.47;;;8.60;91.00;;;;;;4212720;28;20440;-63
2024/04/21 06:36:45;;;;;;;0.40;0.25;;;8.50;91.30;;;;;;4204822;28;20427;-63
2024/04/21 06:38:47;;;;;;;3.72;0.55;;;8.60;91.60;;;;;;4211693;28;20054;-63
2024/04/21 06:40:48;;;;;;;0.73;0.20;;;8.70;91.30;;;;;;4213030;28;20044;-63
2024/04/21 06:42:49;;;;;;;0.60;0.32;;;8.60;91.00;;;;;;4203149;28;20462;-61
2024/04/21 06:44:50;;;;;;;0.45;0.20;;;8.70;91.20;;;;;;4214796;28;20122;-63
2024/04/21 06:46:52;;;;;;;4.25;0.57;;;8.70;91.20;;;;;;4206504;28;20063;-63
2024/04/21 06:48:54;;;;;;;1.23;0.75;;;8.80;91.20;;;;;;4209193;28;20048;-62
2024/04/21 06:50:56;;;;;;;0.80;0.60;;;8.80;91.00;;;;;;4212907;28;20089;-62
2024/04/21 06:52:57;;;;;;;2.05;1.02;;;8.60;91.20;;;;;;4203050;28;20056;-65
2024/04/21 06:54:58;;;;;;;0.30;0.20;;;8.70;91.40;;;;;;4214596;28;20056;-62
2024/04/21 06:56:59;;;;;;;1.23;0.30;;;8.80;91.40;;;;;;4208636;28;20047;-62
2024/04/21 06:59:01;;;;;;;3.20;1.00;;;8.90;91.60;;;;;;4207766;28;20040;-63
2024/04/21 07:01:02;;;;;;;0.08;0.08;;;9.10;91.10;;;;;;4214920;28;20039;-67
2024/04/21 07:03:04;;;;;;;0.40;0.28;;;9.20;91.10;;;;;;4203410;28;20045;-67
2024/04/21 07:05:07;;;;;;;0.68;0.63;;;9.20;90.50;;;;;;4214895;28;20433;-66
2024/04/21 07:07:08;;;;;;;2.55;0.22;;;9.30;90.60;;;;;;4210213;28;20050;-63
2024/04/21 07:09:09;;;;;;;2.35;0.22;;;9.30;90.60;;;;;;4205578;28;20073;-63
2024/04/21 07:11:11;;;;;;;0.38;0.32;;;9.30;90.50;;;;;;4214149;28;20054;-65
2024/04/21 07:13:12;;;;;;;0.68;0.20;;;9.40;90.50;;;;;;4195888;28;20067;-62
2024/04/21 07:15:13;;;;;;;1.25;0.50;;;9.50;90.60;;;;;;4198308;28;20097;-63
2024/04/21 07:17:14;;;;;;;0.40;0.20;;;9.50;90.10;;;;;;4199247;28;20054;-63
2024/04/21 07:19:16;;;;;;;0.30;0.20;;;9.50;90.40;;;;;;4207371;28;20417;-63
2024/04/21 07:21:18;;;;;;;1.20;0.40;;;9.50;90.70;;;;;;4197148;28;20054;-63
2024/04/21 07:23:19;;;;;;;0.35;0.20;;;9.50;90.30;;;;;;4206633;28;20041;-63
2024/04/21 07:25:20;;;;;;;6.25;1.40;;;9.40;90.20;;;;;;4213861;28;20052;-62
2024/04/21 07:27:22;;;;;;;0.95;0.30;;;9.50;90.40;;;;;;4212487;28;20045;-64
2024/04/21 07:29:23;;;;;;;0.38;0.10;;;9.60;90.40;;;;;;4202299;28;20048;-64
2024/04/21 07:31:30;;;;;;;4.22;0.22;;;9.50;90.30;;;;;;4213846;28;20048;-63
2024/04/21 07:33:31;;;;;;;0.63;0.40;;;9.70;90.30;;;;;;4204776;28;20115;-63
2024/04/21 07:35:32;;;;;;;1.45;0.60;;;9.70;90.50;;;;;;4197649;28;20040;-63
2024/04/21 07:37:35;;;;;;;0.52;0.22;;;9.70;90.60;;;;;;4212267;28;20044;-64
2024/04/21 07:39:36;;;;;;;2.25;0.20;;;9.80;90.70;;;;;;4202292;28;20044;-63
2024/04/21 07:41:40;;;;;;;1.35;0.35;;;9.80;90.70;;;;;;4213666;28;20048;-63
2024/04/21 07:43:41;;;;;;;1.70;0.43;;;10.10;90.60;;;;;;4189978;28;20534;-64
2024/04/21 07:45:45;;;;;;;0.55;0.20;;;10.10;90.50;;;;;;4207790;28;20485;-64
2024/04/21 07:47:46;;;;;;;0.65;0.38;;;10.00;90.30;;;;;;4212434;28;20047;-63
2024/04/21 07:49:47;;;;;;;0.75;0.38;;;9.90;90.30;;;;;;4207939;28;20156;-63
2024/04/21 07:51:48;;;;;;;0.70;0.30;;;10.10;90.40;;;;;;4196667;28;20065;-63
2024/04/21 07:53:51;;;;;;;2.47;0.57;;;10.30;90.00;;;;;;4201925;28;20052;-64
2024/04/21 07:55:52;;;;;;;0.35;0.28;;;10.30;89.00;;;;;;4203689;28;20052;-63
2024/04/21 07:57:53;;;;;;;6.78;0.30;;;10.30;90.10;;;;;;4196807;28;20102;-63
2024/04/21 07:59:54;;;;;;;0.30;0.13;;;10.30;89.60;;;;;;4209207;28;20050;-63
2024/04/21 08:01:56;;;;;;;0.25;0.22;;;10.30;89.10;;;;;;4196081;28;20048;-65
2024/04/21 08:03:57;;;;;;;1.10;0.75;;;10.20;88.50;;;;;;4200305;28;20036;-63
2024/04/21 08:05:59;;;;;;;0.75;0.20;;;10.20;89.10;;;;;;4203913;28;20508;-63
2024/04/21 08:08:01;;;;;;;0.75;0.20;;;10.40;88.30;;;;;;4196608;28;20040;-63
2024/04/21 08:10:04;;;;;;;0.20;0.20;;;10.60;88.10;;;;;;4201698;28;20521;-63
2024/04/21 08:12:06;;;;;;;0.10;0.10;;;10.70;86.40;;;;;;4211792;28;20142;-64
2024/04/21 08:14:08;;;;;;;1.38;0.50;;;10.80;87.20;;;;;;4210970;28;20055;-63
2024/04/21 08:16:11;;;;;;;0.52;0.43;;;10.70;87.20;;;;;;4202164;28;20044;-64
2024/04/21 08:18:12;;;;;;;0.20;0.20;;;10.70;85.90;;;;;;4196475;28;20089;-63
2024/04/21 08:20:16;;;;;;;1.00;0.17;;;10.80;85.80;;;;;;4202974;28;20041;-64
2024/04/21 08:22:17;;;;;;;2.65;0.55;;;10.90;85.60;;;;;;4210437;28;20064;-64
2024/04/21 08:24:19;;;;;;;1.63;0.60;;;11.00;85.50;;;;;;4209220;28;20426;-63
2024/04/21 08:26:21;;;;;;;0.73;0.50;;;10.90;84.60;;;;;;4207403;28;20551;-64
2024/04/21 08:28:22;;;;;;;0.15;0.13;;;10.80;86.00;;;;;;4196262;28;20085;-64
2024/04/21 08:30:24;;;;;;;0.88;0.30;;;11.00;86.60;;;;;;4204073;28;20101;-63
2024/04/21 08:32:25;;;;;;;0.30;0.28;;;11.20;85.90;;;;;;4199930;28;20044;-64
2024/04/21 08:34:26;;;;;;;1.10;0.40;;;11.30;84.50;;;;;;4197394;28;20090;-67
2024/04/21 08:36:28;;;;;;;1.00;0.47;;;11.50;84.60;;;;;;4190764;28;20044;-63
2024/04/21 08:38:30;;;;;;;6.13;2.72;;;11.60;83.90;;;;;;4179533;28;20047;-62
2024/04/21 08:40:37;;;;;;;3.63;0.98;;;11.50;84.50;;;;;;4202105;28;20054;-62
2024/04/21 08:42:42;;;;;;;0.38;0.35;;;11.70;82.60;;;;;;4184569;28;20055;-62
2024/04/21 08:44:44;;;;;;;3.40;0.98;;;11.80;81.80;;;;;;4197070;28;20063;-63
2024/04/21 08:46:46;;;;;;;0.93;0.40;;;11.80;82.50;;;;;;4207302;28;20044;-63
2024/04/21 08:48:49;;;;;;;1.55;0.60;;;11.80;82.70;;;;;;4196155;28;20059;-64
2024/04/21 08:50:50;;;;;;;2.47;0.90;;;12.00;82.20;;;;;;4202206;28;20073;-63
2024/04/21 08:52:52;;;;;;;0.70;0.28;;;11.80;81.40;;;;;;4202226;28;20055;-63
2024/04/21 08:54:53;;;;;;;0.17;0.17;;;11.50;81.90;;;;;;4196496;28;20056;-64
2024/04/21 08:56:56;;;;;;;3.15;1.35;;;11.30;82.30;;;;;;4207079;28;20044;-63
2024/04/21 08:59:01;;;;;;;1.13;0.88;;;11.10;82.60;;;;;;4195703;28;20048;-65
2024/04/21 09:01:02;;;;;;;0.47;0.20;;;11.00;82.60;;;;;;4200439;28;20536;-63
2024/04/21 09:03:04;;;;;;;1.20;0.40;;;10.80;83.80;;;;;;4186736;28;20053;-63
2024/04/21 09:05:07;;;;;;;0.20;0.20;;;10.90;83.50;;;;;;4195923;28;20041;-63
2024/04/21 09:07:10;;;;;;;3.00;0.98;;;10.80;83.20;;;;;;4210686;28;20052;-63
2024/04/21 09:09:11;;;;;;;1.33;0.70;;;10.70;82.10;;;;;;4195710;28;20044;-63
2024/04/21 09:11:14;;;;;;;1.60;0.40;;;10.90;82.60;;;;;;4199642;28;20494;-63
2024/04/21 09:13:16;;;;;;;0.20;0.13;;;11.00;83.00;;;;;;4187064;28;20616;-63
2024/04/21 09:15:19;;;;;;;0.15;0.15;;;11.20;80.70;;;;;;4212294;28;20052;-64
2024/04/21 09:17:21;;;;;;;0.50;0.30;;;11.00;81.70;;;;;;4200410;28;20052;-63
2024/04/21 09:19:22;;;;;;;0.93;0.60;;;11.00;80.90;;;;;;4211572;28;20048;-64
2024/04/21 09:21:24;;;;;;;0.20;0.20;;;11.10;80.70;;;;;;4210042;28;20040;-64
2024/04/21 09:23:25;;;;;;;0.82;0.20;;;11.20;80.90;;;;;;4201912;28;20062;-63
2024/04/21 09:25:26;;;;;;;1.80;0.93;;;11.50;80.80;;;;;;4212244;28;20085;-63
2024/04/21 09:27:29;;;;;;;0.40;0.30;;;11.70;78.60;;;;;;4208001;28;20097;-64
2024/04/21 09:29:30;;;;;;;0.30;0.20;;;11.90;79.00;;;;;;4197745;28;20098;-63
2024/04/21 09:31:32;;;;;;;0.20;0.20;;;12.00;78.80;;;;;;4197850;28;20040;-63
2024/04/21 09:33:35;;;;;;;0.20;0.20;;;11.80;78.40;;;;;;4206832;28;20433;-63
2024/04/21 09:35:36;;;;;;;0.10;0.10;;;11.50;79.00;;;;;;4195630;28;20487;-63
2024/04/21 09:37:40;;;;;;;2.38;0.70;;;11.40;79.20;;;;;;4203354;28;20040;-63
2024/04/21 09:39:43;;;;;;;0.57;0.28;;;11.40;79.20;;;;;;4199498;28;20410;-63
2024/04/21 09:41:50;;;;;;;0.52;0.10;;;11.50;79.20;;;;;;4196581;28;20089;-64
2024/04/21 09:43:51;;;;;;;1.75;1.13;;;11.50;78.50;;;;;;4206488;28;20448;-63
2024/04/21 09:45:58;;;;;;;2.88;1.33;;;11.40;79.70;;;;;;4195516;28;20060;-64
2024/04/21 09:48:02;;;;;;;1.17;0.47;;;11.70;79.40;;;;;;4203663;28;20450;-64
2024/04/21 09:50:04;;;;;;;0.30;0.30;;;11.70;78.70;;;;;;4199165;28;20053;-64
2024/04/21 09:52:08;;;;;;;0.55;0.30;;;11.60;78.70;;;;;;4196700;28;20043;-63
2024/04/21 09:54:11;;;;;;;0.63;0.30;;;11.60;78.00;;;;;;4189473;28;20053;-63
2024/04/21 09:56:18;;;;;;;0.10;0.10;;;11.70;78.20;;;;;;4195330;28;20413;-63
2024/04/21 09:58:23;;;;;;;2.08;0.85;;;11.70;77.20;;;;;;4203485;28;20044;-64
2024/04/21 10:00:26;;;;;;;0.22;0.15;;;11.40;76.60;;;;;;4199121;28;20041;-63
2024/04/21 10:02:35;;;;;;;0.30;0.30;;;11.40;76.40;;;;;;4196338;28;20036;-63
2024/04/21 10:04:42;;;;;;;0.50;0.50;;;11.50;76.60;;;;;;4189776;28;20180;-63
2024/04/21 10:06:46;;;;;;;0.30;0.10;;;11.70;77.10;;;;;;4195482;28;20171;-63
2024/04/21 10:08:49;;;;;;;0.45;0.28;;;12.00;77.00;;;;;;4204313;28;20109;-64
2024/04/21 10:10:52;;;;;;;1.00;0.40;;;12.10;76.40;;;;;;4201330;28;20063;-65
2024/04/21 10:12:55;;;;;;;0.95;0.28;;;12.10;77.30;;;;;;4199562;28;20120;-63
2024/04/21 10:14:56;;;;;;;0.28;0.10;;;11.90;77.20;;;;;;4209956;28;20052;-64
2024/04/21 10:16:58;;;;;;;1.15;0.40;;;12.00;77.00;;;;;;4198414;28;20049;-64
2024/04/21 10:19:03;;;;;;;0.10;0.10;;;12.00;76.70;;;;;;4207177;28;20496;-64
2024/04/21 10:21:05;;;;;;;0.35;0.25;;;12.00;76.30;;;;;;4202470;28;20093;-71
2024/04/21 10:23:09;;;;;;;0.60;0.60;;;11.90;77.10;;;;;;4201515;28;20057;-67
2024/04/21 10:25:10;;;;;;;0.32;0.30;;;12.10;76.50;;;;;;4188747;28;20485;-64
2024/04/21 10:27:21;;;;;;;1.63;1.33;;;12.10;76.60;;;;;;4215068;28;20085;-64
2024/04/21 10:29:30;;;;;;;0.70;0.30;;;12.10;75.80;;;;;;4206605;28;20048;-63
2024/04/21 10:31:34;;;;;;;1.13;0.40;;;12.00;76.20;;;;;;4212152;28;20482;-64
2024/04/21 10:33:36;;;;;;;0.55;0.25;;;11.80;77.80;;;;;;4213590;28;20052;-63
2024/04/21 10:35:39;;;;;;;0.30;0.30;;;11.70;77.60;;;;;;4203412;28;20050;-63
2024/04/21 10:37:45;;;;;;;0.80;0.60;;;11.80;78.30;;;;;;4214835;28;20058;-63
2024/04/21 10:39:47;;;;;;;0.65;0.20;;;11.60;77.80;;;;;;4188905;28;20158;-64
2024/04/21 10:41:51;;;;;;;0.38;0.10;;;11.70;77.70;;;;;;4210914;28;20052;-63